Time;durP1;ratioP1;P1;durP2;ratioP2;P2;SDS_P1;SDS_P2;PMS_P1;PMS_P2;Temp;Humidity;BMP_temperature;BMP_pressure;BME280_temperature;BME280_humidity;BME280_pressure;Samples;Min_cycle;Max_cycle;Signal;HPM_P1;HPM_P2
2021/10/27 00:01:12;;;;;;;16.90;10.00;;;9.90;71.00;;;;;;5032657;28;20528;-73
2021/10/27 00:03:38;;;;;;;17.20;9.50;;;9.90;77.80;;;;;;5036358;28;20100;-74
2021/10/27 00:06:04;;;;;;;11.80;8.60;;;9.90;72.20;;;;;;5037008;28;20083;-74
2021/10/27 00:08:31;;;;;;;15.60;8.80;;;9.90;74.00;;;;;;5036801;28;20433;-74
2021/10/27 00:10:57;;;;;;;15.57;9.27;;;9.90;79.90;;;;;;5037056;28;20033;-73
2021/10/27 00:13:23;;;;;;;11.20;8.53;;;9.80;78.60;;;;;;5036919;28;20048;-74
2021/10/27 00:15:48;;;;;;;14.73;8.40;;;9.90;78.40;;;;;;5036599;28;20516;-74
2021/10/27 00:18:14;;;;;;;13.87;9.03;;;9.80;74.00;;;;;;5036415;28;20478;-74
2021/10/27 00:20:40;;;;;;;11.80;8.00;;;9.80;73.20;;;;;;5036724;28;20025;-74
2021/10/27 00:23:06;;;;;;;14.60;8.60;;;9.80;71.10;;;;;;5036363;28;20525;-74
2021/10/27 00:25:31;;;;;;;10.40;7.60;;;9.80;75.80;;;;;;5036706;28;20041;-74
2021/10/27 00:27:57;;;;;;;14.07;8.00;;;9.80;79.00;;;;;;5036486;28;20080;-74
2021/10/27 00:30:23;;;;;;;14.40;7.83;;;9.80;79.30;;;;;;5036766;28;20424;-74
2021/10/27 00:32:49;;;;;;;11.53;7.63;;;9.80;80.60;;;;;;5036490;28;20034;-74
2021/10/27 00:35:15;;;;;;;12.83;7.57;;;9.70;80.50;;;;;;5036643;28;20036;-75
2021/10/27 00:37:41;;;;;;;10.67;7.73;;;9.80;79.60;;;;;;5035998;28;20021;-74
2021/10/27 00:40:08;;;;;;;12.67;8.17;;;9.80;79.30;;;;;;5036189;28;20033;-74
2021/10/27 00:42:33;;;;;;;15.47;8.33;;;9.80;78.20;;;;;;5036097;28;20148;-74
2021/10/27 00:44:59;;;;;;;13.23;7.90;;;9.80;76.70;;;;;;5036244;28;20120;-74
2021/10/27 00:47:25;;;;;;;12.80;7.43;;;9.70;76.10;;;;;;5035913;28;20029;-74
2021/10/27 00:49:51;;;;;;;14.30;7.97;;;9.70;78.30;;;;;;5036064;28;20035;-74
2021/10/27 00:52:18;;;;;;;14.80;8.10;;;9.70;87.90;;;;;;5035859;28;20556;-74
2021/10/27 00:54:48;;;;;;;11.83;7.77;;;9.70;90.40;;;;;;5051445;28;20133;-74
2021/10/27 00:57:16;;;;;;;11.77;8.03;;;9.70;91.20;;;;;;5035759;28;20021;-74
2021/10/27 00:59:45;;;;;;;14.63;7.43;;;9.70;86.30;;;;;;5032438;28;20032;-74
2021/10/27 01:02:12;;;;;;;11.93;7.40;;;9.70;79.50;;;;;;5048084;28;20556;-73
2021/10/27 01:04:39;;;;;;;11.57;6.60;;;;;;;;;;5034199;28;20034;-74
2021/10/27 01:07:05;;;;;;;13.37;6.80;;;;;;;;;;5035412;28;20026;-74
2021/10/27 01:09:33;;;;;;;12.50;6.83;;;9.50;88.80;;;;;;5035323;28;20363;-73
2021/10/27 01:11:59;;;;;;;9.60;6.87;;;9.60;80.50;;;;;;5035437;28;20025;-73
2021/10/27 01:14:33;;;;;;;12.50;7.30;;;9.60;79.20;;;;;;5035107;28;20022;-74
2021/10/27 01:16:59;;;;;;;10.90;6.50;;;9.60;78.40;;;;;;5050767;28;20033;-74
2021/10/27 01:19:24;;;;;;;9.90;6.50;;;9.60;77.70;;;;;;5035641;28;20485;-74
2021/10/27 01:21:50;;;;;;;10.53;6.30;;;9.60;78.50;;;;;;5035231;28;20028;-74
2021/10/27 01:24:16;;;;;;;9.37;5.80;;;9.60;77.20;;;;;;5035152;28;20029;-73
2021/10/27 01:26:42;;;;;;;10.27;6.00;;;9.60;76.50;;;;;;5035447;28;20022;-74
2021/10/27 01:29:08;;;;;;;7.77;5.30;;;9.60;76.30;;;;;;5035114;28;20024;-74
2021/10/27 01:31:33;;;;;;;11.07;6.00;;;9.60;75.90;;;;;;5035264;28;20025;-74
2021/10/27 01:34:00;;;;;;;8.70;6.03;;;9.70;75.50;;;;;;5050496;28;20026;-74
2021/10/27 01:36:29;;;;;;;9.87;5.37;;;9.70;75.00;;;;;;5050462;28;20031;-74
2021/10/27 01:38:55;;;;;;;9.33;5.43;;;9.70;74.40;;;;;;5035136;28;20021;-74
2021/10/27 01:41:20;;;;;;;10.00;5.67;;;9.80;74.40;;;;;;5035007;28;20477;-74
2021/10/27 01:43:57;;;;;;;10.00;5.10;;;9.80;74.10;;;;;;5035029;28;20034;-73
2021/10/27 01:46:32;;;;;;;10.63;5.23;;;9.80;73.80;;;;;;5035037;28;20072;-74
2021/10/27 01:48:58;;;;;;;9.07;5.43;;;9.80;73.90;;;;;;5049861;28;20021;-74
2021/10/27 01:51:26;;;;;;;8.27;5.20;;;9.90;73.70;;;;;;5034528;28;20025;-74
2021/10/27 01:53:53;;;;;;;9.37;5.50;;;9.90;73.70;;;;;;5034890;28;20112;-74
2021/10/27 01:56:19;;;;;;;9.00;5.73;;;9.90;73.50;;;;;;5034853;28;20469;-74
2021/10/27 01:58:44;;;;;;;8.50;6.33;;;9.90;73.40;;;;;;5034480;28;20470;-74
2021/10/27 02:01:10;;;;;;;11.57;6.63;;;9.80;73.20;;;;;;5034525;28;20052;-74
2021/10/27 02:03:36;;;;;;;10.10;6.53;;;9.80;73.30;;;;;;5034468;28;20091;-74
2021/10/27 02:06:02;;;;;;;9.43;6.67;;;9.80;73.40;;;;;;5034620;28;20075;-74
2021/10/27 02:08:27;;;;;;;9.57;5.93;;;9.70;73.50;;;;;;5034412;28;20032;-74
2021/10/27 02:10:53;;;;;;;12.67;7.00;;;9.70;74.60;;;;;;5034317;28;20497;-74
2021/10/27 02:13:19;;;;;;;9.43;5.93;;;9.50;68.90;;;;;;5034543;28;20025;-74
2021/10/27 02:15:45;;;;;;;10.13;6.13;;;9.50;71.10;;;;;;5034556;28;20063;-74
2021/10/27 02:18:10;;;;;;;12.87;6.50;;;9.50;71.00;;;;;;5034145;28;20029;-74
2021/10/27 02:20:36;;;;;;;9.83;6.10;;;9.40;91.00;;;;;;5034176;28;20426;-74
2021/10/27 02:23:02;;;;;;;9.67;6.00;;;;;;;;;;5034385;28;20045;-74
2021/10/27 02:25:28;;;;;;;12.77;6.03;;;;;;;;;;5033584;28;20108;-73
2021/10/27 02:27:54;;;;;;;8.83;6.23;;;9.20;68.10;;;;;;5049474;28;20038;-74
2021/10/27 02:30:19;;;;;;;11.17;5.97;;;9.20;69.00;;;;;;5034261;28;20030;-74
2021/10/27 02:32:45;;;;;;;9.47;6.13;;;9.20;68.90;;;;;;5049600;28;20211;-73
2021/10/27 02:35:11;;;;;;;10.60;6.47;;;9.10;69.00;;;;;;5034419;28;20036;-74
2021/10/27 02:37:37;;;;;;;9.60;6.03;;;9.10;69.00;;;;;;5034190;28;20030;-73
2021/10/27 02:40:03;;;;;;;8.93;5.73;;;9.10;69.50;;;;;;5034349;28;20108;-74
2021/10/27 02:42:29;;;;;;;9.57;5.90;;;9.10;69.20;;;;;;5033969;28;20113;-74
2021/10/27 02:44:55;;;;;;;12.43;5.57;;;9.10;69.00;;;;;;5033837;28;20108;-73
2021/10/27 02:47:21;;;;;;;9.03;6.10;;;9.10;69.00;;;;;;5032446;28;20026;-74
2021/10/27 02:49:46;;;;;;;8.90;6.00;;;9.10;68.90;;;;;;5034045;28;20040;-73
2021/10/27 02:52:12;;;;;;;8.13;5.30;;;9.10;69.80;;;;;;5033989;28;20413;-73
2021/10/27 02:54:37;;;;;;;10.33;5.57;;;9.20;70.70;;;;;;5033564;28;20477;-74
2021/10/27 02:57:03;;;;;;;8.13;5.67;;;9.20;70.90;;;;;;5033409;28;20060;-74
2021/10/27 02:59:29;;;;;;;9.10;5.20;;;9.10;71.10;;;;;;5033749;28;20026;-74
2021/10/27 03:01:55;;;;;;;9.43;5.47;;;9.20;70.90;;;;;;5033656;28;20140;-74
2021/10/27 03:04:20;;;;;;;8.87;5.17;;;9.20;70.80;;;;;;5033677;28;20044;-74
2021/10/27 03:06:46;;;;;;;7.73;5.37;;;9.20;70.70;;;;;;5033541;28;20052;-74
2021/10/27 03:09:12;;;;;;;9.47;5.23;;;9.10;70.60;;;;;;5033724;28;20067;-74
2021/10/27 03:11:37;;;;;;;8.37;5.23;;;9.10;70.40;;;;;;5033728;28;20057;-73
2021/10/27 03:14:03;;;;;;;8.67;5.60;;;9.10;70.30;;;;;;5033378;28;20029;-73
2021/10/27 03:16:28;;;;;;;9.60;5.40;;;9.10;70.70;;;;;;5033529;28;20026;-74
2021/10/27 03:18:54;;;;;;;8.07;5.17;;;9.10;70.50;;;;;;5033411;28;20104;-74
2021/10/27 03:21:20;;;;;;;14.40;5.40;;;9.10;70.60;;;;;;5033518;28;20420;-75
2021/10/27 03:23:45;;;;;;;8.73;5.03;;;9.00;70.70;;;;;;5033278;28;20033;-75
2021/10/27 03:26:11;;;;;;;9.53;5.40;;;9.10;70.90;;;;;;5033218;28;20159;-74
2021/10/27 03:28:37;;;;;;;8.10;4.83;;;9.10;71.40;;;;;;5033116;28;20474;-74
2021/10/27 03:31:03;;;;;;;10.67;4.97;;;9.10;71.10;;;;;;5033354;28;20033;-73
2021/10/27 03:33:28;;;;;;;9.93;5.03;;;9.10;71.00;;;;;;5048473;28;20029;-74
2021/10/27 03:35:54;;;;;;;8.80;4.63;;;9.20;70.80;;;;;;5033331;28;20021;-74
2021/10/27 03:38:20;;;;;;;10.83;4.90;;;9.20;70.60;;;;;;5032960;28;20052;-73
2021/10/27 03:40:45;;;;;;;7.90;4.83;;;9.30;70.60;;;;;;5033168;28;20100;-73
2021/10/27 03:43:11;;;;;;;8.67;4.43;;;9.30;70.50;;;;;;5033216;28;20057;-73
2021/10/27 03:45:38;;;;;;;9.03;5.10;;;9.40;70.40;;;;;;5033081;28;20072;-74
2021/10/27 03:48:04;;;;;;;8.53;4.73;;;9.40;70.30;;;;;;5033027;28;20076;-74
2021/10/27 03:50:30;;;;;;;6.57;4.60;;;9.40;70.30;;;;;;5032712;28;20038;-74
2021/10/27 03:52:55;;;;;;;8.17;4.77;;;9.50;70.20;;;;;;5032752;28;20738;-73
2021/10/27 03:55:21;;;;;;;9.60;5.30;;;9.50;70.30;;;;;;5031483;28;20026;-74
2021/10/27 03:57:46;;;;;;;9.73;5.13;;;9.50;70.30;;;;;;5032443;28;20025;-74
2021/10/27 04:00:13;;;;;;;9.47;4.93;;;9.60;70.10;;;;;;5032848;28;20516;-73
2021/10/27 04:02:40;;;;;;;8.67;4.83;;;9.60;69.70;;;;;;5033221;28;20034;-74
2021/10/27 04:05:07;;;;;;;8.67;5.10;;;9.60;70.00;;;;;;5032803;28;20115;-74
2021/10/27 04:07:33;;;;;;;6.83;4.73;;;9.60;69.90;;;;;;5032951;28;20108;-74
2021/10/27 04:09:59;;;;;;;6.83;4.73;;;9.60;69.80;;;;;;5032559;28;20025;-74
2021/10/27 04:12:24;;;;;;;8.77;5.27;;;9.60;69.80;;;;;;5033213;28;20040;-74
2021/10/27 04:14:50;;;;;;;8.13;5.10;;;9.50;69.20;;;;;;5032583;28;20029;-74
2021/10/27 04:17:16;;;;;;;8.07;4.80;;;9.50;69.80;;;;;;5032513;28;20037;-74
2021/10/27 04:19:42;;;;;;;7.77;4.60;;;9.40;70.00;;;;;;5032849;28;20029;-73
2021/10/27 04:22:07;;;;;;;7.77;4.90;;;9.40;70.00;;;;;;5032759;28;20053;-74
2021/10/27 04:24:33;;;;;;;9.03;4.53;;;9.40;70.00;;;;;;5032739;28;20041;-74
2021/10/27 04:26:58;;;;;;;9.10;4.73;;;9.40;70.30;;;;;;5032650;28;20452;-74
2021/10/27 04:29:24;;;;;;;9.77;4.93;;;9.40;70.40;;;;;;5031288;28;20470;-73
2021/10/27 04:31:50;;;;;;;9.30;4.90;;;9.40;70.10;;;;;;5032555;28;20458;-74
2021/10/27 04:34:15;;;;;;;10.10;5.10;;;9.40;70.30;;;;;;5032725;28;20026;-73
2021/10/27 04:36:41;;;;;;;7.87;4.77;;;9.40;70.30;;;;;;5032424;28;20386;-74
2021/10/27 04:39:09;;;;;;;9.63;4.67;;;9.40;70.30;;;;;;5032372;28;20050;-74
2021/10/27 04:41:35;;;;;;;8.97;5.00;;;9.40;70.30;;;;;;5032428;28;20032;-74
2021/10/27 04:44:00;;;;;;;9.63;5.57;;;9.40;70.20;;;;;;5032502;28;20371;-74
2021/10/27 04:46:27;;;;;;;7.20;4.60;;;9.40;70.20;;;;;;5032742;28;20029;-74
2021/10/27 04:48:53;;;;;;;7.27;4.97;;;9.40;70.50;;;;;;5049480;28;20432;-73
2021/10/27 04:51:18;;;;;;;6.33;4.87;;;9.40;70.70;;;;;;5035889;28;20034;-74
2021/10/27 04:53:44;;;;;;;8.97;5.13;;;9.40;70.80;;;;;;5036116;28;20041;-74
2021/10/27 04:56:10;;;;;;;10.07;5.40;;;9.40;70.70;;;;;;5036017;28;20075;-74
2021/10/27 04:58:35;;;;;;;9.27;5.30;;;9.50;70.40;;;;;;5036016;28;20086;-74
2021/10/27 05:01:01;;;;;;;9.43;5.37;;;9.40;70.30;;;;;;5035685;28;20042;-74
2021/10/27 05:03:27;;;;;;;9.40;5.60;;;9.40;70.40;;;;;;5035793;28;20040;-74
2021/10/27 05:05:56;;;;;;;7.17;4.80;;;9.40;70.10;;;;;;5035940;28;20040;-74
2021/10/27 05:08:23;;;;;;;19.17;6.53;;;9.40;70.40;;;;;;5035787;28;20028;-74
2021/10/27 05:10:50;;;;;;;11.07;5.80;;;9.40;70.10;;;;;;5035587;28;20025;-74
2021/10/27 05:13:16;;;;;;;13.77;5.87;;;9.40;69.80;;;;;;5035502;28;20029;-74
2021/10/27 05:15:41;;;;;;;10.03;5.57;;;9.30;70.30;;;;;;5034274;28;20363;-74
2021/10/27 05:18:07;;;;;;;14.57;5.40;;;9.30;70.40;;;;;;5035426;28;20477;-74
2021/10/27 05:20:33;;;;;;;15.03;5.93;;;9.20;70.30;;;;;;5050996;28;20114;-74
2021/10/27 05:22:59;;;;;;;12.07;6.10;;;9.20;69.00;;;;;;5035506;28;20021;-75
2021/10/27 05:25:24;;;;;;;12.37;5.83;;;9.10;68.90;;;;;;5035565;28;20113;-75
2021/10/27 05:27:50;;;;;;;15.90;6.10;;;9.10;69.20;;;;;;5035386;28;20096;-75
2021/10/27 05:30:16;;;;;;;14.57;6.57;;;9.10;69.30;;;;;;5035605;28;20033;-75
2021/10/27 05:32:41;;;;;;;9.83;6.37;;;9.00;69.20;;;;;;5035556;28;20508;-75
2021/10/27 05:35:07;;;;;;;14.70;6.17;;;9.10;72.60;;;;;;5035159;28;20526;-75
2021/10/27 05:37:33;;;;;;;12.40;6.43;;;9.00;69.50;;;;;;5035491;28;20023;-75
2021/10/27 05:39:58;;;;;;;12.37;6.77;;;9.10;78.70;;;;;;5035088;28;20367;-75
2021/10/27 05:42:28;;;;;;;17.27;7.67;;;9.10;80.00;;;;;;5033953;28;20060;-75
2021/10/27 05:44:54;;;;;;;11.40;7.03;;;9.00;72.20;;;;;;5035056;28;20037;-74
2021/10/27 05:47:20;;;;;;;16.27;7.80;;;8.90;70.00;;;;;;5035197;28;20017;-74
2021/10/27 05:49:54;;;;;;;15.73;7.53;;;8.90;70.10;;;;;;5050223;28;20083;-75
2021/10/27 06:00:01;;;;;;;16.50;7.27;;;8.90;70.60;;;;;;5033794;28;20038;-77
2021/10/27 06:02:26;;;;;;;15.17;7.60;;;8.90;70.70;;;;;;5034345;28;20060;-80
2021/10/27 06:04:52;;;;;;;13.03;7.83;;;8.90;70.70;;;;;;5034602;28;20041;-73
2021/10/27 06:07:18;;;;;;;10.43;6.37;;;8.90;70.80;;;;;;5034335;28;20029;-73
2021/10/27 06:09:43;;;;;;;13.80;5.67;;;8.90;70.80;;;;;;5035018;28;20108;-77
2021/10/27 06:12:13;;;;;;;24.30;5.27;;;9.00;70.90;;;;;;5034560;28;20121;-72
2021/10/27 06:14:39;;;;;;;20.87;6.43;;;9.00;71.10;;;;;;5034278;28;20551;-72
2021/10/27 06:17:05;;;;;;;10.70;5.37;;;9.10;71.10;;;;;;5034273;28;20026;-72
2021/10/27 06:19:30;;;;;;;13.20;5.40;;;9.10;71.10;;;;;;5034455;28;20025;-72
2021/10/27 06:21:56;;;;;;;11.53;5.23;;;9.20;71.10;;;;;;5034534;28;20040;-72
2021/10/27 06:24:22;;;;;;;15.00;5.47;;;9.20;71.10;;;;;;5034390;28;20044;-70
2021/10/27 06:26:50;;;;;;;11.70;5.40;;;9.30;71.20;;;;;;5034347;28;20038;-72
2021/10/27 06:29:27;;;;;;;13.17;5.00;;;9.30;71.20;;;;;;5034857;28;20443;-79
2021/10/27 06:32:07;;;;;;;9.90;5.83;;;9.30;71.20;;;;;;5034215;28;20098;-70
2021/10/27 06:34:37;;;;;;;7.07;5.10;;;9.40;71.20;;;;;;5034305;28;20420;-80
2021/10/27 06:47:59;;;;;;;9.70;5.07;;;9.90;80.20;;;;;;5016939;28;20057;-73
2021/10/27 06:50:25;;;;;;;7.00;5.00;;;9.90;72.50;;;;;;5033655;28;20413;-76
2021/10/27 06:52:51;;;;;;;7.83;4.70;;;9.80;70.60;;;;;;5033480;28;20107;-73
2021/10/27 06:55:17;;;;;;;10.57;4.93;;;9.90;70.30;;;;;;5051453;28;20032;-72
2021/10/27 06:57:43;;;;;;;7.77;5.40;;;10.00;70.20;;;;;;5046777;28;20032;-72
2021/10/27 07:00:17;;;;;;;12.90;5.40;;;10.20;75.10;;;;;;5046359;28;20024;-73
2021/10/27 07:03:06;;;;;;;8.95;5.65;;;10.30;77.10;;;;;;5033475;28;20042;-71
2021/10/27 07:05:50;;;;;;;11.75;5.40;;;;;;;;;;5033032;28;20041;-72
2021/10/27 07:16:29;;;;;;;10.80;6.28;;;;;;;;;;5033511;28;20059;-71
2021/10/27 07:18:55;;;;;;;10.35;5.75;;;;;;;;;;5033395;28;20056;-76
2021/10/27 07:21:21;;;;;;;13.52;5.63;;;;;;;;;;5033460;28;20101;-74
2021/10/27 07:23:47;;;;;;;13.07;6.50;;;11.10;77.20;;;;;;5033515;28;20057;-74
2021/10/27 07:26:15;;;;;;;14.05;6.15;;;11.00;69.50;;;;;;5033160;28;20045;-73
2021/10/27 07:28:42;;;;;;;12.60;5.55;;;11.20;74.30;;;;;;5033243;28;20025;-73
2021/10/27 07:31:12;;;;;;;13.13;6.18;;;11.20;70.30;;;;;;5033227;28;20030;-80
2021/10/27 07:33:37;;;;;;;7.63;4.93;;;11.30;69.90;;;;;;5032700;28;20064;-76
2021/10/27 07:36:22;;;;;;;9.65;5.43;;;11.40;76.80;;;;;;5032812;28;20060;-74
2021/10/27 07:41:33;;;;;;;12.25;6.65;;;11.50;71.20;;;;;;5033246;28;20060;-75
2021/10/27 07:44:02;;;;;;;9.02;5.47;;;11.60;71.50;;;;;;5033003;28;20435;-74
2021/10/27 07:46:28;;;;;;;11.50;5.93;;;11.70;70.00;;;;;;5048414;28;20029;-76
2021/10/27 07:48:54;;;;;;;11.95;7.47;;;11.90;79.00;;;;;;5032134;28;20477;-74
2021/10/27 07:51:19;;;;;;;13.68;5.60;;;11.90;71.40;;;;;;5031743;28;20102;-74
2021/10/27 07:53:45;;;;;;;11.43;5.53;;;12.10;79.00;;;;;;5032898;28;20199;-74
2021/10/27 07:56:13;;;;;;;18.17;6.10;;;12.10;78.70;;;;;;5033338;28;20152;-74
2021/10/27 07:58:38;;;;;;;10.18;5.78;;;12.20;78.10;;;;;;5033072;28;20032;-73
2021/10/27 08:01:04;;;;;;;11.07;6.85;;;;;;;;;;5033015;28;20522;-73
2021/10/27 08:03:30;;;;;;;12.57;5.70;;;12.20;68.10;;;;;;5048332;28;20052;-75
2021/10/27 08:06:00;;;;;;;10.50;5.78;;;12.40;70.70;;;;;;5048179;28;20477;-74
2021/10/27 08:08:26;;;;;;;14.05;5.97;;;12.40;68.50;;;;;;5032953;28;20033;-74
2021/10/27 08:10:52;;;;;;;18.48;10.45;;;12.40;68.60;;;;;;5033050;28;20030;-73
2021/10/27 08:13:18;;;;;;;10.93;6.47;;;12.50;68.70;;;;;;5033006;28;20032;-74
2021/10/27 08:15:45;;;;;;;9.00;5.65;;;;;;;;;;5032817;28;20022;-77
2021/10/27 08:18:16;;;;;;;15.30;7.70;;;12.80;96.30;;;;;;5032634;28;20029;-75
2021/10/27 08:20:43;;;;;;;10.85;5.70;;;12.80;67.90;;;;;;5032725;28;20029;-72
2021/10/27 08:23:11;;;;;;;15.30;5.97;;;12.80;68.70;;;;;;5033365;28;20478;-77
2021/10/27 08:25:43;;;;;;;10.95;5.78;;;12.90;68.60;;;;;;5036442;28;20121;-74
2021/10/27 08:28:13;;;;;;;10.60;6.38;;;13.00;67.60;;;;;;5036430;28;20432;-74
2021/10/27 08:30:55;;;;;;;11.32;6.28;;;13.20;74.80;;;;;;5036517;28;20034;-74
2021/10/27 08:33:38;;;;;;;16.38;6.05;;;;;;;;;;5035092;28;20173;-75
2021/10/27 08:36:04;;;;;;;12.50;5.68;;;13.40;87.90;;;;;;5036683;28;20030;-73
2021/10/27 08:38:30;;;;;;;14.63;5.75;;;13.40;88.50;;;;;;5036268;28;20402;-74
2021/10/27 08:40:56;;;;;;;10.75;6.22;;;;;;;;;;5036254;28;20033;-74
2021/10/27 08:43:22;;;;;;;7.70;5.47;;;;;;;;;;5036484;28;20033;-74
2021/10/27 08:45:48;;;;;;;9.82;5.57;;;13.70;87.90;;;;;;5036122;28;20073;-74
2021/10/27 08:48:16;;;;;;;9.68;5.80;;;13.70;83.80;;;;;;5035040;28;20060;-74
2021/10/27 08:50:44;;;;;;;11.73;5.72;;;13.80;87.50;;;;;;5036314;28;20057;-74
2021/10/27 08:53:14;;;;;;;9.23;5.90;;;13.80;82.80;;;;;;5036083;28;20022;-73
2021/10/27 08:55:42;;;;;;;9.25;5.30;;;13.80;65.40;;;;;;5034626;28;20048;-74
2021/10/27 08:58:08;;;;;;;13.20;5.95;;;14.00;78.10;;;;;;5034608;28;20028;-74
2021/10/27 09:05:41;;;;;;;11.05;5.80;;;14.20;92.60;;;;;;5035749;28;20034;-74
2021/10/27 09:34:35;;;;;;;9.68;3.40;;;;;;;;;;5035479;28;20115;-82
2021/10/27 09:36:46;;;;;;;8.52;4.03;;;;;;;;;;5039152;28;20474;-83
2021/10/27 10:06:48;;;;;;;5.13;2.70;;;16.10;57.20;;;;;;5033718;28;20036;-80
2021/10/27 10:09:16;;;;;;;4.93;2.95;;;16.10;56.70;;;;;;5033573;28;20482;-78
2021/10/27 10:11:42;;;;;;;4.60;2.90;;;16.30;58.50;;;;;;5035007;28;20029;-81
2021/10/27 10:14:12;;;;;;;9.48;3.40;;;16.30;67.60;;;;;;5034766;28;20029;-79
2021/10/27 10:16:43;;;;;;;5.18;3.47;;;16.30;57.50;;;;;;5034979;28;20052;-79
2021/10/27 10:19:15;;;;;;;6.05;3.83;;;16.40;56.70;;;;;;5034575;28;20482;-81
2021/10/27 10:21:42;;;;;;;5.00;2.70;;;16.50;76.60;;;;;;5034581;28;20036;-80
2021/10/27 10:24:23;;;;;;;6.13;3.10;;;16.50;57.10;;;;;;5033375;28;20025;-81
2021/10/27 10:26:51;;;;;;;5.05;2.90;;;16.70;78.10;;;;;;5034354;28;20471;-82
2021/10/27 10:29:41;;;;;;;4.93;2.65;;;18.70;57.70;;;;;;5034265;28;20496;-82
2021/10/27 10:32:24;;;;;;;4.55;2.88;;;16.80;56.30;;;;;;5034080;28;20052;-80
2021/10/27 10:34:54;;;;;;;11.95;2.80;;;16.90;56.40;;;;;;5049575;28;20109;-80
2021/10/27 10:37:36;;;;;;;3.88;3.00;;;16.90;56.30;;;;;;5034355;28;20523;-80
2021/10/27 10:40:36;;;;;;;6.88;2.83;;;17.10;56.40;;;;;;5033935;28;20447;-80
2021/10/27 10:43:38;;;;;;;7.40;2.72;;;17.20;74.10;;;;;;5033798;28;20067;-81
2021/10/27 11:37:45;;;;;;;5.50;2.17;;;;;;;;;;5033668;28;20072;-81
2021/10/27 11:40:36;;;;;;;4.22;2.10;;;;;;;;;;5033269;28;20032;-76
2021/10/27 11:43:17;;;;;;;12.33;2.23;;;;;;;;;;5030295;28;20111;-78
2021/10/27 11:48:23;;;;;;;3.63;2.03;;;18.50;75.90;;;;;;5031564;28;20052;-76
2021/10/27 11:50:50;;;;;;;2.70;1.70;;;18.60;70.00;;;;;;5033093;28;20024;-76
2021/10/27 11:53:24;;;;;;;4.25;2.00;;;18.50;73.70;;;;;;5033103;28;20063;-79
2021/10/27 11:55:51;;;;;;;2.97;1.70;;;18.50;74.40;;;;;;5032637;28;20025;-78
2021/10/27 11:58:17;;;;;;;3.05;1.98;;;18.50;68.90;;;;;;5033759;28;20032;-77
2021/10/27 12:00:46;;;;;;;6.80;2.88;;;18.60;72.20;;;;;;5036923;28;20041;-76
2021/10/27 12:03:16;;;;;;;2.47;1.70;;;18.60;58.50;;;;;;5036725;28;20083;-75
2021/10/27 12:05:49;;;;;;;3.03;1.80;;;18.60;56.50;;;;;;5036995;28;20112;-75
2021/10/27 12:11:12;;;;;;;6.47;2.10;;;18.70;56.80;;;;;;5036509;28;20029;-77
2021/10/27 12:19:04;;;;;;;5.82;1.88;;;18.70;49.90;;;;;;5036392;28;20469;-76
2021/10/27 12:21:30;;;;;;;5.85;2.00;;;18.80;49.40;;;;;;5035484;28;20032;-76
2021/10/27 12:24:00;;;;;;;7.88;1.95;;;18.80;49.10;;;;;;5036443;28;20026;-76
2021/10/27 12:26:26;;;;;;;3.05;1.67;;;18.80;49.00;;;;;;5031810;28;20083;-75
2021/10/27 12:29:13;;;;;;;3.90;2.08;;;18.80;49.00;;;;;;5032034;28;20025;-75
2021/10/27 12:31:40;;;;;;;2.17;1.50;;;18.70;48.40;;;;;;5015864;28;20028;-75
2021/10/27 12:34:26;;;;;;;5.68;1.80;;;18.70;49.40;;;;;;5014870;28;20435;-77
2021/10/27 12:36:53;;;;;;;3.33;1.58;;;18.80;48.60;;;;;;5016407;28;20501;-76
2021/10/27 12:39:33;;;;;;;3.35;1.75;;;18.80;49.10;;;;;;5016202;28;20022;-75
2021/10/27 12:42:05;;;;;;;7.35;1.98;;;18.80;49.00;;;;;;5016492;28;20029;-76
2021/10/27 12:44:31;;;;;;;;;;;18.80;48.30;;;;;;5016866;28;20026;-76
2021/10/27 12:47:14;;;;;;;4.22;1.90;;;18.80;48.30;;;;;;5016472;28;19905;-76
2021/10/27 12:49:42;;;;;;;3.78;2.03;;;18.80;48.10;;;;;;5016689;28;20058;-75
2021/10/27 12:52:28;;;;;;;3.72;2.17;;;18.80;48.50;;;;;;5015198;28;20026;-76
2021/10/27 12:55:14;;;;;;;3.13;1.60;;;18.80;48.20;;;;;;5014813;28;20391;-77
2021/10/27 12:58:01;;;;;;;6.47;1.98;;;18.80;47.90;;;;;;5015669;28;20025;-76
2021/10/27 13:06:06;;;;;;;4.55;1.90;;;18.70;47.90;;;;;;5015972;28;20041;-76
2021/10/27 13:13:59;;;;;;;9.80;1.70;;;18.60;47.70;;;;;;5016305;28;20064;-76
2021/10/27 13:19:02;;;;;;;3.80;1.80;;;18.60;48.10;;;;;;5015723;28;20077;-75
2021/10/27 13:32:31;;;;;;;3.55;1.90;;;18.50;48.50;;;;;;5016196;28;20030;-86
2021/10/27 13:34:56;;;;;;;5.47;1.73;;;18.50;48.70;;;;;;5015939;28;20094;-83
2021/10/27 13:37:24;;;;;;;3.30;1.63;;;18.40;48.10;;;;;;5015786;28;20065;-87
2021/10/27 13:39:51;;;;;;;3.55;2.00;;;18.40;48.00;;;;;;5015859;28;20030;-85
2021/10/27 13:42:24;;;;;;;3.78;1.73;;;18.40;48.40;;;;;;5015614;28;20045;-86
2021/10/27 13:45:04;;;;;;;6.20;1.60;;;18.40;48.70;;;;;;5015241;28;20030;-77
2021/10/27 13:47:42;;;;;;;3.35;1.60;;;18.40;49.40;;;;;;5015175;28;20069;-76
2021/10/27 14:06:37;;;;;;;3.47;1.88;;;18.20;48.50;;;;;;5014718;28;20052;-74
2021/10/27 14:09:20;;;;;;;3.28;2.03;;;18.20;48.70;;;;;;5014323;28;20102;-74
2021/10/27 14:14:52;;;;;;;2.92;1.60;;;18.10;49.10;;;;;;5014736;28;20117;-74
2021/10/27 15:32:39;;;;;;;7.00;2.25;;;17.10;51.10;;;;;;5013750;28;20064;-73
2021/10/27 15:53:01;;;;;;;6.65;2.90;;;16.80;52.50;;;;;;5011348;28;20041;-74
2021/10/27 15:55:27;;;;;;;5.00;2.80;;;16.80;52.50;;;;;;5019676;28;20017;-73
2021/10/27 15:57:53;;;;;;;5.68;2.58;;;16.80;52.70;;;;;;5052707;28;20028;-73
2021/10/27 16:00:21;;;;;;;9.95;3.40;;;16.70;53.10;;;;;;5052291;28;20453;-73
2021/10/27 16:02:47;;;;;;;9.15;3.38;;;16.70;53.70;;;;;;5052369;28;20033;-73
2021/10/27 16:05:13;;;;;;;4.75;2.42;;;16.60;53.90;;;;;;5033398;28;20047;-73
2021/10/27 16:07:42;;;;;;;5.85;3.38;;;16.50;54.10;;;;;;5039842;28;20342;-73
2021/10/27 16:10:16;;;;;;;6.40;3.20;;;16.50;54.30;;;;;;5052461;28;20032;-73
2021/10/27 16:12:42;;;;;;;7.25;3.53;;;16.40;54.40;;;;;;5052462;28;20408;-73
2021/10/27 16:15:14;;;;;;;5.85;3.33;;;16.30;54.50;;;;;;5052312;28;20051;-73
2021/10/27 16:17:40;;;;;;;5.07;3.47;;;16.30;54.80;;;;;;5052505;28;20044;-73
2021/10/27 16:20:07;;;;;;;5.22;3.40;;;16.20;55.00;;;;;;5052602;28;20033;-73
2021/10/27 16:22:32;;;;;;;6.25;3.88;;;16.20;55.20;;;;;;5052397;28;20484;-72
2021/10/27 16:24:58;;;;;;;10.27;5.72;;;16.20;55.30;;;;;;5052331;28;20025;-77
2021/10/27 16:27:25;;;;;;;19.23;8.80;;;16.10;55.50;;;;;;5049295;28;20135;-75
2021/10/27 16:29:50;;;;;;;9.80;5.75;;;16.10;56.00;;;;;;5049836;28;20075;-75
2021/10/27 16:32:16;;;;;;;11.93;8.00;;;16.00;56.60;;;;;;5050488;28;20033;-74
2021/10/27 16:34:43;;;;;;;10.70;7.25;;;16.00;56.00;;;;;;5052469;28;20532;-75
2021/10/27 16:37:10;;;;;;;7.57;4.45;;;15.90;56.20;;;;;;5052152;28;20381;-75
2021/10/27 16:39:36;;;;;;;8.13;4.45;;;16.00;56.40;;;;;;5052447;28;20033;-75
2021/10/27 16:42:03;;;;;;;7.38;4.15;;;15.90;56.10;;;;;;5052495;28;20040;-76
2021/10/27 16:44:28;;;;;;;5.45;3.80;;;15.90;56.20;;;;;;5053805;28;20470;-83
2021/10/27 16:46:54;;;;;;;7.70;4.55;;;16.00;56.30;;;;;;5055764;28;20025;-76
2021/10/27 16:49:19;;;;;;;6.32;3.80;;;15.90;55.80;;;;;;5054470;28;20075;-75
2021/10/27 16:51:45;;;;;;;8.05;4.47;;;15.90;55.90;;;;;;5055960;28;20025;-74
2021/10/27 16:54:11;;;;;;;7.75;4.70;;;15.90;56.10;;;;;;5056027;28;20017;-77
2021/10/27 16:56:37;;;;;;;8.98;5.15;;;15.90;56.30;;;;;;5055838;28;20025;-73
2021/10/27 16:59:03;;;;;;;8.50;4.88;;;15.80;56.40;;;;;;5055821;28;20021;-73
2021/10/27 17:01:29;;;;;;;10.80;5.38;;;15.80;56.50;;;;;;5055802;28;20099;-74
2021/10/27 17:03:54;;;;;;;9.75;5.07;;;15.80;56.60;;;;;;5054834;28;20493;-75
2021/10/27 17:06:20;;;;;;;9.10;6.20;;;15.80;56.80;;;;;;5051999;28;20139;-76
2021/10/27 17:08:46;;;;;;;9.90;5.95;;;15.60;56.70;;;;;;5051571;28;20072;-76
2021/10/27 17:11:12;;;;;;;7.55;5.72;;;15.60;57.00;;;;;;5056002;28;20033;-76
2021/10/27 17:13:39;;;;;;;9.75;5.85;;;15.60;57.20;;;;;;5055858;28;20028;-75
2021/10/27 17:16:05;;;;;;;8.95;5.47;;;15.50;57.20;;;;;;5055773;28;20083;-76
2021/10/27 17:18:32;;;;;;;10.98;6.00;;;15.50;57.50;;;;;;5055713;28;20024;-76
2021/10/27 17:20:59;;;;;;;11.85;5.63;;;15.50;57.60;;;;;;5055842;28;20041;-75
2021/10/27 17:23:31;;;;;;;7.90;5.70;;;15.40;58.00;;;;;;5054423;28;20523;-77
2021/10/27 17:25:57;;;;;;;10.40;6.45;;;15.40;58.50;;;;;;5055312;28;20037;-77
2021/10/27 17:28:24;;;;;;;9.25;6.07;;;15.40;58.90;;;;;;5053685;28;20029;-75
2021/10/27 17:30:51;;;;;;;10.77;5.57;;;15.30;58.60;;;;;;5052999;28;20037;-76
2021/10/27 17:33:17;;;;;;;9.65;6.03;;;15.20;58.70;;;;;;5052703;28;20029;-75
2021/10/27 17:35:44;;;;;;;11.07;5.72;;;15.30;59.20;;;;;;5054406;28;20029;-75
2021/10/27 17:38:13;;;;;;;8.52;5.93;;;15.20;58.20;;;;;;5070523;28;20033;-75
2021/10/27 17:40:44;;;;;;;9.32;5.93;;;15.10;59.10;;;;;;5055287;28;20029;-75
2021/10/27 17:43:10;;;;;;;17.73;8.30;;;15.00;59.10;;;;;;5055054;28;20104;-76
2021/10/27 17:45:39;;;;;;;15.05;11.38;;;15.00;59.50;;;;;;5055216;28;20112;-83